createdAt,value
2017-02-18T00:00:46.418Z,0
2017-02-18T00:01:55.748Z,0
2017-02-18T00:03:04.724Z,0
2017-02-18T00:04:14.048Z,0
2017-02-18T00:05:23.786Z,0
2017-02-18T00:06:33.112Z,0
2017-02-18T00:07:42.031Z,0
2017-02-18T00:08:51.791Z,0
2017-02-18T00:10:02.330Z,0
2017-02-18T00:11:12.085Z,0
2017-02-18T00:12:21.811Z,0
2017-02-18T00:13:31.539Z,0
2017-02-18T00:14:40.519Z,0
2017-02-18T00:15:50.272Z,0
2017-02-18T00:16:59.197Z,0
2017-02-18T00:18:08.931Z,0
2017-02-18T00:19:17.868Z,0
2017-02-18T00:20:26.932Z,0
2017-02-18T00:21:36.256Z,0
2017-02-18T00:22:45.177Z,0
2017-02-18T00:23:55.320Z,0
2017-02-18T00:25:04.649Z,0
2017-02-18T00:26:14.020Z,0
2017-02-18T00:27:22.940Z,0
2017-02-18T00:28:32.272Z,0
2017-02-18T00:29:41.185Z,0
2017-02-18T00:30:50.102Z,0
2017-02-18T00:31:59.587Z,0
2017-02-18T00:33:09.747Z,0
2017-02-18T00:34:19.082Z,0
2017-02-18T00:35:28.417Z,0
2017-02-18T00:36:37.753Z,0
2017-02-18T00:37:47.231Z,0
2017-02-18T00:38:56.151Z,0
2017-02-18T00:40:05.469Z,0
2017-02-18T00:41:14.403Z,0
2017-02-18T00:42:23.723Z,0
2017-02-18T00:43:33.110Z,0
2017-02-18T00:44:42.867Z,0
2017-02-18T00:45:51.777Z,0
2017-02-18T00:47:01.111Z,0
2017-02-18T00:48:10.445Z,0
2017-02-18T00:49:19.536Z,0
2017-02-18T00:50:29.335Z,0
2017-02-18T00:51:38.656Z,0
2017-02-18T00:52:47.974Z,0
2017-02-18T00:53:57.706Z,0
2017-02-18T00:55:07.242Z,0
2017-02-18T00:56:16.967Z,0
2017-02-18T00:57:26.285Z,0
2017-02-18T00:58:35.194Z,0
2017-02-18T00:59:45.329Z,0
2017-02-18T01:00:54.960Z,0
2017-02-18T01:02:05.109Z,0
2017-02-18T01:03:14.446Z,0
2017-02-18T01:04:23.356Z,0
2017-02-18T01:05:33.522Z,0
2017-02-18T01:06:42.987Z,0
2017-02-18T01:07:52.317Z,0
2017-02-18T01:09:02.049Z,0
2017-02-18T01:10:11.385Z,0
2017-02-18T01:11:21.126Z,0
2017-02-18T01:12:30.617Z,0
2017-02-18T01:13:39.548Z,0
2017-02-18T01:14:48.875Z,0
2017-02-18T01:15:58.616Z,0
2017-02-18T01:17:07.949Z,0
2017-02-18T01:18:16.963Z,0
2017-02-18T01:19:26.721Z,0
2017-02-18T01:20:35.659Z,0
2017-02-18T01:21:45.818Z,0
2017-02-18T01:22:55.968Z,0
2017-02-18T01:24:05.080Z,0
2017-02-18T01:25:13.990Z,0
2017-02-18T01:26:23.727Z,0
2017-02-18T01:27:33.043Z,0
2017-02-18T01:28:43.189Z,0
2017-02-18T01:29:52.401Z,0
2017-02-18T01:31:02.185Z,0
2017-02-18T01:32:11.515Z,0
2017-02-18T01:33:20.889Z,0
2017-02-18T01:34:30.673Z,0
2017-02-18T01:35:40.139Z,0
2017-02-18T01:36:49.886Z,0
2017-02-18T01:37:58.819Z,0
2017-02-18T01:39:08.990Z,0
2017-02-18T01:40:19.138Z,0
2017-02-18T01:41:28.063Z,0
2017-02-18T01:42:37.454Z,0
2017-02-18T01:43:46.796Z,0
2017-02-18T01:44:56.121Z,0
2017-02-18T01:46:05.446Z,0
2017-02-18T01:47:14.914Z,0
2017-02-18T01:48:23.823Z,0
2017-02-18T01:49:32.740Z,0
2017-02-18T01:50:41.649Z,0
2017-02-18T01:51:51.387Z,0
2017-02-18T01:53:00.346Z,0
2017-02-18T01:54:09.668Z,0
2017-02-18T01:55:18.998Z,0
2017-02-18T01:56:28.338Z,0
2017-02-18T01:57:37.667Z,0
2017-02-18T01:58:47.455Z,0
2017-02-18T01:59:56.388Z,0
2017-02-18T02:01:06.569Z,0
2017-02-18T02:02:15.912Z,0
2017-02-18T02:03:25.649Z,0
2017-02-18T02:04:34.866Z,0
2017-02-18T02:05:43.786Z,0
2017-02-18T02:06:53.515Z,0
2017-02-18T02:08:02.842Z,0
2017-02-18T02:09:12.170Z,0
2017-02-18T02:10:21.538Z,0
2017-02-18T02:11:30.446Z,0
2017-02-18T02:12:39.355Z,0
2017-02-18T02:13:48.693Z,0
2017-02-18T02:14:58.016Z,0
2017-02-18T02:16:08.299Z,0
2017-02-18T02:17:17.623Z,0
2017-02-18T02:18:27.366Z,0
2017-02-18T02:19:36.311Z,0
2017-02-18T02:20:46.040Z,0
2017-02-18T02:21:55.415Z,0
2017-02-18T02:23:05.154Z,0
2017-02-18T02:24:14.895Z,0
2017-02-18T02:25:25.029Z,0
2017-02-18T02:26:34.764Z,0
2017-02-18T02:27:44.701Z,0
2017-02-18T02:28:53.613Z,0
2017-02-18T02:30:02.524Z,0
2017-02-18T02:31:12.674Z,0
2017-02-18T02:32:22.009Z,0
2017-02-18T02:33:31.538Z,0
2017-02-18T02:34:41.683Z,0
2017-02-18T02:35:51.410Z,0
2017-02-18T02:37:01.154Z,0
2017-02-18T02:38:10.482Z,0
2017-02-18T02:39:20.432Z,0
2017-02-18T02:40:29.356Z,0
2017-02-18T02:41:38.285Z,0
2017-02-18T02:42:47.207Z,0
2017-02-18T02:43:56.539Z,0
2017-02-18T02:45:05.699Z,0
2017-02-18T02:46:15.019Z,0
2017-02-18T02:47:24.752Z,0
2017-02-18T02:48:34.082Z,0
2017-02-18T02:49:43.818Z,0
2017-02-18T02:50:52.753Z,0
2017-02-18T02:52:02.070Z,0
2017-02-18T02:53:12.217Z,0
2017-02-18T02:54:21.954Z,0
2017-02-18T02:55:31.686Z,0
2017-02-18T02:56:41.732Z,0
2017-02-18T02:57:51.055Z,0
2017-02-18T02:58:59.970Z,0
2017-02-18T03:00:09.298Z,0
2017-02-18T03:01:19.431Z,0
2017-02-18T03:02:28.810Z,0
2017-02-18T03:03:37.721Z,0
2017-02-18T03:04:47.049Z,0
2017-02-18T03:05:56.382Z,0
2017-02-18T03:07:05.699Z,0
2017-02-18T03:08:15.621Z,0
2017-02-18T03:09:25.357Z,0
2017-02-18T03:10:34.692Z,0
2017-02-18T03:11:44.016Z,0
2017-02-18T03:12:52.927Z,0
2017-02-18T03:14:02.664Z,0
2017-02-18T03:15:11.998Z,0
2017-02-18T03:16:20.919Z,0
2017-02-18T03:17:30.696Z,0
2017-02-18T03:18:39.608Z,0
2017-02-18T03:19:49.508Z,0
2017-02-18T03:20:58.424Z,0
2017-02-18T03:22:08.164Z,0
2017-02-18T03:23:17.557Z,0
2017-02-18T03:24:26.882Z,0
2017-02-18T03:25:37.112Z,0
2017-02-18T03:26:46.453Z,0
2017-02-18T03:27:55.784Z,0
2017-02-18T03:29:05.109Z,0
2017-02-18T03:30:14.439Z,0
2017-02-18T03:31:24.827Z,0
2017-02-18T03:32:34.172Z,0
2017-02-18T03:33:44.330Z,0
2017-02-18T03:34:53.264Z,0
2017-02-18T03:36:02.604Z,0
2017-02-18T03:37:11.531Z,0
2017-02-18T03:38:21.257Z,0
2017-02-18T03:39:30.180Z,0
2017-02-18T03:40:39.505Z,0
2017-02-18T03:41:48.833Z,0
2017-02-18T03:42:58.708Z,0
2017-02-18T03:44:08.043Z,0
2017-02-18T03:45:16.979Z,0
2017-02-18T03:46:26.712Z,0
2017-02-18T03:47:36.844Z,0
2017-02-18T03:48:46.475Z,0
2017-02-18T03:49:55.819Z,0
2017-02-18T03:51:05.561Z,0
2017-02-18T03:52:15.290Z,0
2017-02-18T03:53:25.032Z,0
2017-02-18T03:54:34.351Z,0
2017-02-18T03:55:43.680Z,0
2017-02-18T03:56:53.831Z,0
2017-02-18T03:58:03.147Z,0
2017-02-18T03:59:12.484Z,0
2017-02-18T04:00:22.474Z,0
2017-02-18T04:01:31.806Z,0
2017-02-18T04:02:41.949Z,0
2017-02-18T04:03:51.683Z,0
2017-02-18T04:05:00.999Z,0
2017-02-18T04:06:10.816Z,0
2017-02-18T04:07:19.747Z,0
2017-02-18T04:08:29.888Z,0
2017-02-18T04:09:39.204Z,0
2017-02-18T04:10:48.143Z,0
2017-02-18T04:11:58.433Z,0
2017-02-18T04:13:07.758Z,0
2017-02-18T04:14:17.131Z,0
2017-02-18T04:15:26.054Z,0
2017-02-18T04:16:36.627Z,0
2017-02-18T04:17:46.410Z,0
2017-02-18T04:18:55.318Z,0
2017-02-18T04:20:05.067Z,0
2017-02-18T04:21:14.066Z,0
2017-02-18T04:22:23.793Z,0
2017-02-18T04:23:33.464Z,0
2017-02-18T04:24:42.793Z,0
2017-02-18T04:25:52.538Z,0
2017-02-18T04:27:02.699Z,0
2017-02-18T04:28:12.040Z,0
2017-02-18T04:29:21.519Z,0
2017-02-18T04:30:30.427Z,0
2017-02-18T04:31:39.767Z,0
2017-02-18T04:32:49.515Z,0
2017-02-18T04:33:58.436Z,0
2017-02-18T04:35:07.802Z,0
2017-02-18T04:36:17.942Z,0
2017-02-18T04:37:27.667Z,0
2017-02-18T04:38:36.579Z,0
2017-02-18T04:39:45.907Z,0
2017-02-18T04:40:55.886Z,0
2017-02-18T04:42:05.206Z,0
2017-02-18T04:43:14.531Z,0
2017-02-18T04:44:23.447Z,0
2017-02-18T04:45:32.768Z,0
2017-02-18T04:46:42.707Z,0
2017-02-18T04:47:52.022Z,0
2017-02-18T04:49:01.352Z,0
2017-02-18T04:50:11.085Z,0
2017-02-18T04:51:20.405Z,0
2017-02-18T04:52:29.739Z,0
2017-02-18T04:53:38.662Z,0
2017-02-18T04:54:47.621Z,0
2017-02-18T04:55:57.373Z,0
2017-02-18T04:57:07.114Z,0
2017-02-18T04:58:17.140Z,0
2017-02-18T04:59:26.074Z,0
2017-02-18T05:00:35.823Z,0
2017-02-18T05:01:45.146Z,0
2017-02-18T05:02:54.060Z,0
2017-02-18T05:04:03.854Z,0
2017-02-18T05:05:13.195Z,0
2017-02-18T05:06:22.546Z,0
2017-02-18T05:07:31.886Z,0
2017-02-18T05:08:41.625Z,0
2017-02-18T05:09:50.598Z,0
2017-02-18T05:10:59.922Z,0
2017-02-18T05:12:08.863Z,0
2017-02-18T05:13:17.782Z,0
2017-02-18T05:14:27.521Z,0
2017-02-18T05:15:36.999Z,0
2017-02-18T05:16:46.321Z,0
2017-02-18T05:17:55.648Z,0
2017-02-18T05:19:04.971Z,0
2017-02-18T05:20:14.290Z,0
2017-02-18T05:21:24.327Z,0
2017-02-18T05:22:33.255Z,0
2017-02-18T05:23:42.578Z,0
2017-02-18T05:24:51.501Z,0
2017-02-18T05:26:01.650Z,0
2017-02-18T05:27:10.824Z,0
2017-02-18T05:28:20.152Z,0
2017-02-18T05:29:29.469Z,0
2017-02-18T05:30:39.221Z,0
2017-02-18T05:31:48.542Z,0
2017-02-18T05:32:58.435Z,0
2017-02-18T05:34:07.348Z,0
2017-02-18T05:35:16.273Z,0
2017-02-18T05:36:25.189Z,0
2017-02-18T05:37:34.939Z,0
2017-02-18T05:38:44.412Z,0
2017-02-18T05:39:54.152Z,0
2017-02-18T05:41:04.306Z,0
2017-02-18T05:42:13.275Z,0
2017-02-18T05:43:23.018Z,0
2017-02-18T05:44:32.214Z,0
2017-02-18T05:45:42.766Z,0
2017-02-18T05:46:52.500Z,0
2017-02-18T05:48:02.242Z,0
2017-02-18T05:49:11.564Z,0
2017-02-18T05:50:22.321Z,0
2017-02-18T05:51:31.649Z,0
2017-02-18T05:52:41.392Z,0
2017-02-18T05:53:52.360Z,0
2017-02-18T05:55:01.690Z,0
2017-02-18T05:56:11.039Z,0
2017-02-18T05:57:20.363Z,0
2017-02-18T05:58:30.086Z,0
2017-02-18T05:59:39.421Z,0
2017-02-18T06:00:48.795Z,0
2017-02-18T06:01:58.681Z,0
2017-02-18T06:03:08.031Z,0
2017-02-18T06:04:17.766Z,0
2017-02-18T06:05:26.705Z,0
2017-02-18T06:06:35.650Z,0
2017-02-18T06:07:45.843Z,0
2017-02-18T06:08:55.157Z,0
2017-02-18T06:10:04.483Z,0
2017-02-18T06:11:13.808Z,0
2017-02-18T06:12:23.969Z,0
2017-02-18T06:13:33.701Z,0
2017-02-18T06:14:43.036Z,0
2017-02-18T06:15:52.360Z,0
2017-02-18T06:17:02.099Z,0
2017-02-18T06:18:11.033Z,0
2017-02-18T06:19:20.957Z,0
2017-02-18T06:20:30.282Z,0
2017-02-18T06:21:39.654Z,0
2017-02-18T06:22:49.003Z,0
2017-02-18T06:23:58.746Z,0
2017-02-18T06:25:09.144Z,0
2017-02-18T06:26:18.873Z,0
2017-02-18T06:27:28.201Z,0
2017-02-18T06:28:37.179Z,0
2017-02-18T06:29:46.522Z,0
2017-02-18T06:30:56.085Z,0
2017-02-18T06:32:05.913Z,0
2017-02-18T06:33:15.256Z,0
2017-02-18T06:34:24.999Z,0
2017-02-18T06:35:33.911Z,0
2017-02-18T06:36:43.661Z,0
2017-02-18T06:37:53.388Z,0
2017-02-18T06:39:03.116Z,0
2017-02-18T06:40:12.859Z,0
2017-02-18T06:41:22.178Z,0
2017-02-18T06:42:32.073Z,0
2017-02-18T06:43:41.798Z,0
2017-02-18T06:44:51.521Z,5
2017-02-18T06:46:00.846Z,5
2017-02-18T06:47:11.001Z,5
2017-02-18T06:48:21.294Z,5
2017-02-18T06:49:30.644Z,5
2017-02-18T06:50:40.392Z,5
2017-02-18T06:51:49.724Z,5
2017-02-18T06:52:58.643Z,5
2017-02-18T06:54:08.129Z,5
2017-02-18T06:55:17.900Z,5
2017-02-18T06:56:27.240Z,5
2017-02-18T06:57:36.963Z,5
2017-02-18T06:58:45.904Z,5
2017-02-18T06:59:55.681Z,10
2017-02-18T07:01:04.998Z,10
2017-02-18T07:02:14.326Z,10
2017-02-18T07:03:24.061Z,10
2017-02-18T07:04:33.409Z,10
2017-02-18T07:05:42.317Z,10
2017-02-18T07:06:51.650Z,10
2017-02-18T07:08:01.405Z,10
2017-02-18T07:09:11.544Z,10
2017-02-18T07:10:21.677Z,10
2017-02-18T07:11:31.523Z,10
2017-02-18T07:12:40.866Z,10
2017-02-18T07:13:50.216Z,10
2017-02-18T07:14:59.550Z,15
2017-02-18T07:16:09.692Z,10
2017-02-18T07:17:19.782Z,10
2017-02-18T07:18:29.096Z,10
2017-02-18T07:19:39.252Z,15
2017-02-18T07:20:48.177Z,15
2017-02-18T07:21:57.905Z,15
2017-02-18T07:23:07.331Z,15
2017-02-18T07:24:16.665Z,15
2017-02-18T07:25:25.588Z,15
2017-02-18T07:26:34.921Z,15
2017-02-18T07:27:43.908Z,15
2017-02-18T07:28:53.283Z,15
2017-02-18T07:30:02.613Z,15
2017-02-18T07:31:12.367Z,15
2017-02-18T07:32:22.514Z,15
2017-02-18T07:33:31.843Z,20
2017-02-18T07:34:41.928Z,20
2017-02-18T07:35:51.668Z,20
2017-02-18T07:37:00.996Z,15
2017-02-18T07:38:10.325Z,15
2017-02-18T07:39:20.073Z,20
2017-02-18T07:40:29.491Z,20
2017-02-18T07:41:39.640Z,20
2017-02-18T07:42:48.976Z,20
2017-02-18T07:43:57.920Z,20
2017-02-18T07:45:07.255Z,20
2017-02-18T07:46:17.695Z,20
2017-02-18T07:47:26.611Z,20
2017-02-18T07:48:35.938Z,20
2017-02-18T07:49:45.661Z,20
2017-02-18T07:50:54.996Z,15
2017-02-18T07:52:04.377Z,15
2017-02-18T07:53:14.514Z,20
2017-02-18T07:54:23.433Z,20
2017-02-18T07:55:33.192Z,15
2017-02-18T07:56:42.917Z,15
2017-02-18T07:57:52.266Z,15
2017-02-18T07:59:02.022Z,15
2017-02-18T08:00:11.750Z,15
2017-02-18T08:01:21.068Z,15
2017-02-18T08:02:30.405Z,15
2017-02-18T08:03:39.893Z,15
2017-02-18T08:04:49.639Z,20
2017-02-18T08:05:59.785Z,20
2017-02-18T08:07:09.109Z,20
2017-02-18T08:08:18.837Z,20
2017-02-18T08:09:28.739Z,20
2017-02-18T08:10:38.080Z,20
2017-02-18T08:11:47.400Z,20
2017-02-18T08:12:56.714Z,20
2017-02-18T08:14:06.892Z,20
2017-02-18T08:15:16.523Z,20
2017-02-18T08:16:25.446Z,20
2017-02-18T08:17:34.796Z,20
2017-02-18T08:18:44.117Z,25
2017-02-18T08:19:53.851Z,25
2017-02-18T08:21:03.682Z,25
2017-02-18T08:22:13.432Z,25
2017-02-18T08:23:22.755Z,25
2017-02-18T08:24:32.090Z,25
2017-02-18T08:25:41.432Z,20
2017-02-18T08:26:51.079Z,20
2017-02-18T08:28:00.395Z,20
2017-02-18T08:29:10.140Z,25
2017-02-18T08:30:19.067Z,25
2017-02-18T08:31:28.939Z,25
2017-02-18T08:32:38.358Z,30
2017-02-18T08:33:47.753Z,30
2017-02-18T08:34:57.367Z,25
2017-02-18T08:36:07.152Z,30
2017-02-18T08:37:16.487Z,30
2017-02-18T08:38:26.155Z,30
2017-02-18T08:39:35.083Z,30
2017-02-18T08:40:44.410Z,30
2017-02-18T08:41:53.746Z,30
2017-02-18T08:43:03.542Z,35
2017-02-18T08:44:13.488Z,35
2017-02-18T08:45:23.424Z,35
2017-02-18T08:46:33.576Z,35
2017-02-18T08:47:42.921Z,40
2017-02-18T08:48:52.664Z,40
2017-02-18T08:50:01.993Z,35
2017-02-18T08:51:10.979Z,35
2017-02-18T08:52:21.113Z,35
2017-02-18T08:53:30.453Z,40
2017-02-18T08:54:39.372Z,40
2017-02-18T08:55:48.692Z,40
2017-02-18T08:56:58.020Z,35
2017-02-18T08:58:07.756Z,35
2017-02-18T08:59:16.684Z,30
2017-02-18T09:00:26.003Z,35
2017-02-18T09:01:35.770Z,30
2017-02-18T09:02:45.090Z,30
2017-02-18T09:03:55.241Z,35
2017-02-18T09:05:04.585Z,35
2017-02-18T09:06:13.926Z,35
2017-02-18T09:07:23.804Z,40
2017-02-18T09:08:32.789Z,45
2017-02-18T09:09:42.133Z,45
2017-02-18T09:10:51.452Z,45
2017-02-18T09:12:01.613Z,45
2017-02-18T09:13:11.338Z,50
2017-02-18T09:14:21.075Z,45
2017-02-18T09:15:30.403Z,45
2017-02-18T09:16:39.739Z,45
2017-02-18T09:17:48.678Z,40
2017-02-18T09:18:58.471Z,40
2017-02-18T09:20:07.386Z,40
2017-02-18T09:21:16.714Z,40
2017-02-18T09:22:26.029Z,40
2017-02-18T09:23:34.964Z,40
2017-02-18T09:24:44.411Z,40
2017-02-18T09:25:53.756Z,40
2017-02-18T09:27:03.506Z,40
2017-02-18T09:28:12.827Z,40
2017-02-18T09:29:21.760Z,40
2017-02-18T09:30:31.640Z,45
2017-02-18T09:31:41.769Z,40
2017-02-18T09:32:51.923Z,40
2017-02-18T09:34:01.668Z,40
2017-02-18T09:35:10.589Z,45
2017-02-18T09:36:20.892Z,50
2017-02-18T09:37:30.619Z,45
2017-02-18T09:38:40.363Z,50
2017-02-18T09:39:49.305Z,50
2017-02-18T09:40:59.037Z,50
2017-02-18T09:42:09.329Z,50
2017-02-18T09:43:18.252Z,50
2017-02-18T09:44:27.594Z,50
2017-02-18T09:45:36.929Z,55
2017-02-18T09:46:46.688Z,60
2017-02-18T09:47:56.318Z,60
2017-02-18T09:49:05.652Z,60
2017-02-18T09:50:14.573Z,60
2017-02-18T09:51:23.906Z,55
2017-02-18T09:52:33.238Z,55
2017-02-18T09:53:43.169Z,55
2017-02-18T09:54:52.513Z,60
2017-02-18T09:56:01.435Z,60
2017-02-18T09:57:10.759Z,60
2017-02-18T09:58:20.086Z,70
2017-02-18T09:59:29.606Z,70
2017-02-18T10:00:39.336Z,70
2017-02-18T10:01:49.064Z,80
2017-02-18T10:02:58.391Z,80
2017-02-18T10:04:07.315Z,75
2017-02-18T10:05:17.201Z,80
2017-02-18T10:06:26.534Z,75
2017-02-18T10:07:35.878Z,80
2017-02-18T10:08:46.020Z,80
2017-02-18T10:09:54.979Z,80
2017-02-18T10:11:03.937Z,85
2017-02-18T10:12:13.265Z,85
2017-02-18T10:13:22.576Z,80
2017-02-18T10:14:31.502Z,80
2017-02-18T10:15:41.243Z,80
2017-02-18T10:16:50.612Z,80
2017-02-18T10:17:59.932Z,80
2017-02-18T10:19:10.072Z,80
2017-02-18T10:20:19.810Z,80
2017-02-18T10:21:29.958Z,80
2017-02-18T10:22:39.221Z,85
2017-02-18T10:23:48.564Z,85
2017-02-18T10:24:57.489Z,85
2017-02-18T10:26:06.827Z,85
2017-02-18T10:27:16.173Z,85
2017-02-18T10:28:25.918Z,85
2017-02-18T10:29:35.252Z,85
2017-02-18T10:30:45.396Z,95
2017-02-18T10:31:54.749Z,95
2017-02-18T10:33:04.479Z,95
2017-02-18T10:34:13.439Z,100
2017-02-18T10:35:22.757Z,100
2017-02-18T10:36:31.678Z,105
2017-02-18T10:37:40.610Z,115
2017-02-18T10:38:49.525Z,120
2017-02-18T10:39:59.261Z,120
2017-02-18T10:41:09.004Z,130
2017-02-18T10:42:18.837Z,140
2017-02-18T10:43:27.755Z,135
2017-02-18T10:44:36.692Z,135
2017-02-18T10:45:46.026Z,130
2017-02-18T10:46:55.777Z,125
2017-02-18T10:48:04.737Z,125
2017-02-18T10:49:14.465Z,125
2017-02-18T10:50:24.194Z,130
2017-02-18T10:51:33.522Z,125
2017-02-18T10:52:43.256Z,120
2017-02-18T10:53:53.095Z,110
2017-02-18T10:55:02.833Z,105
2017-02-18T10:56:12.176Z,105
2017-02-18T10:57:22.904Z,105
2017-02-18T10:58:32.266Z,110
2017-02-18T10:59:42.461Z,115
2017-02-18T11:00:52.923Z,120
2017-02-18T11:02:02.526Z,115
2017-02-18T11:03:13.148Z,125
2017-02-18T11:04:23.253Z,140
2017-02-18T11:05:33.706Z,150
2017-02-18T11:06:44.414Z,140
2017-02-18T11:07:54.684Z,135
2017-02-18T11:09:04.157Z,135
2017-02-18T11:10:13.320Z,130
2017-02-18T11:11:22.399Z,130
2017-02-18T11:12:32.612Z,145
2017-02-18T11:13:42.187Z,160
2017-02-18T11:14:51.584Z,160
2017-02-18T11:16:01.766Z,165
2017-02-18T11:17:12.279Z,175
2017-02-18T11:18:22.405Z,170
2017-02-18T11:19:32.465Z,160
2017-02-18T11:20:43.507Z,155
2017-02-18T11:21:53.765Z,150
2017-02-18T11:23:04.966Z,155
2017-02-18T11:24:15.856Z,160
2017-02-18T11:25:27.332Z,160
2017-02-18T11:26:37.084Z,165
2017-02-18T11:27:46.040Z,170
2017-02-18T11:28:56.158Z,180
2017-02-18T11:30:06.536Z,200
2017-02-18T11:31:16.442Z,195
2017-02-18T11:32:26.576Z,185
2017-02-18T11:33:35.516Z,180
2017-02-18T11:34:44.514Z,180
2017-02-18T11:35:54.114Z,185
2017-02-18T11:37:05.010Z,185
2017-02-18T11:38:16.559Z,175
2017-02-18T11:39:27.017Z,170
2017-02-18T11:40:37.316Z,170
2017-02-18T11:41:48.176Z,175
2017-02-18T11:42:58.918Z,175
2017-02-18T11:44:08.283Z,180
2017-02-18T11:45:17.809Z,175
2017-02-18T11:46:27.669Z,160
2017-02-18T11:47:39.081Z,145
2017-02-18T11:48:49.124Z,135
2017-02-18T11:49:58.598Z,130
2017-02-18T11:51:07.642Z,145
2017-02-18T11:52:17.683Z,160
2017-02-18T11:53:28.326Z,160
2017-02-18T11:54:38.459Z,160
2017-02-18T11:55:49.050Z,165
2017-02-18T11:56:58.383Z,175
2017-02-18T11:58:07.810Z,190
2017-02-18T11:59:17.698Z,195
2017-02-18T12:00:27.816Z,200
2017-02-18T12:01:38.187Z,200
2017-02-18T12:02:48.683Z,185
2017-02-18T12:04:00.232Z,170
2017-02-18T12:05:10.075Z,175
2017-02-18T12:06:20.245Z,175
2017-02-18T12:07:29.797Z,180
2017-02-18T12:08:38.761Z,175
2017-02-18T12:09:48.172Z,170
2017-02-18T12:10:58.463Z,150
2017-02-18T12:12:09.653Z,145
2017-02-18T12:13:20.349Z,140
2017-02-18T12:14:31.054Z,140
2017-02-18T12:15:40.659Z,150
2017-02-18T12:16:50.689Z,160
2017-02-18T12:18:00.303Z,165
2017-02-18T12:19:09.832Z,155
2017-02-18T12:20:19.450Z,145
2017-02-18T12:21:28.925Z,155
2017-02-18T12:22:39.256Z,160
2017-02-18T12:23:49.676Z,170
2017-02-18T12:25:00.486Z,170
2017-02-18T12:26:10.372Z,185
2017-02-18T12:27:20.689Z,185
2017-02-18T12:28:30.367Z,160
2017-02-18T12:29:40.811Z,145
2017-02-18T12:30:51.957Z,150
2017-02-18T12:32:02.829Z,160
2017-02-18T12:33:12.489Z,160
2017-02-18T12:34:22.861Z,150
2017-02-18T12:35:32.269Z,155
2017-02-18T12:36:41.602Z,170
2017-02-18T12:37:50.540Z,175
2017-02-18T12:39:00.689Z,175
2017-02-18T12:40:10.831Z,180
2017-02-18T12:41:20.621Z,165
2017-02-18T12:42:29.958Z,150
2017-02-18T12:43:39.697Z,135
2017-02-18T12:44:49.432Z,140
2017-02-18T12:45:58.754Z,140
2017-02-18T12:47:08.805Z,140
2017-02-18T12:48:18.142Z,150
2017-02-18T12:49:27.071Z,170
2017-02-18T12:50:36.417Z,170
2017-02-18T12:51:45.346Z,155
2017-02-18T12:52:55.089Z,145
2017-02-18T12:54:04.418Z,145
2017-02-18T12:55:13.765Z,145
2017-02-18T12:56:23.103Z,150
2017-02-18T12:57:32.041Z,155
2017-02-18T12:58:41.530Z,150
2017-02-18T12:59:50.853Z,140
2017-02-18T13:01:00.181Z,125
2017-02-18T13:02:09.912Z,125
2017-02-18T13:03:19.265Z,130
2017-02-18T13:04:29.397Z,130
2017-02-18T13:05:38.322Z,130
2017-02-18T13:06:47.657Z,135
2017-02-18T13:07:57.011Z,135
2017-02-18T13:09:06.354Z,130
2017-02-18T13:10:15.629Z,120
2017-02-18T13:11:24.550Z,115
2017-02-18T13:12:33.464Z,120
2017-02-18T13:13:43.781Z,115
2017-02-18T13:14:53.524Z,125
2017-02-18T13:16:03.025Z,135
2017-02-18T13:17:12.352Z,130
2017-02-18T13:18:21.275Z,130
2017-02-18T13:19:30.613Z,140
2017-02-18T13:20:40.772Z,150
2017-02-18T13:21:50.266Z,165
2017-02-18T13:22:59.628Z,180
2017-02-18T13:24:09.358Z,190
2017-02-18T13:25:18.695Z,180
2017-02-18T13:26:27.608Z,175
2017-02-18T13:27:36.896Z,170
2017-02-18T13:28:46.643Z,160
2017-02-18T13:29:55.992Z,170
2017-02-18T13:31:05.347Z,190
2017-02-18T13:32:14.673Z,205
2017-02-18T13:33:24.204Z,185
2017-02-18T13:34:34.031Z,185
2017-02-18T13:35:43.403Z,175
2017-02-18T13:36:53.159Z,165
2017-02-18T13:38:02.905Z,155
2017-02-18T13:39:12.190Z,140
2017-02-18T13:40:21.508Z,130
2017-02-18T13:41:30.850Z,120
2017-02-18T13:42:40.996Z,120
2017-02-18T13:43:50.342Z,120
2017-02-18T13:45:01.056Z,130
2017-02-18T13:46:11.215Z,145
2017-02-18T13:47:20.983Z,145
2017-02-18T13:48:29.916Z,155
2017-02-18T13:49:39.261Z,165
2017-02-18T13:50:48.484Z,160
2017-02-18T13:51:57.830Z,165
2017-02-18T13:53:07.564Z,160
2017-02-18T13:54:16.920Z,155
2017-02-18T13:55:25.851Z,155
2017-02-18T13:56:35.629Z,150
2017-02-18T13:57:45.770Z,145
2017-02-18T13:58:55.095Z,155
2017-02-18T14:00:04.034Z,155
2017-02-18T14:01:13.780Z,140
2017-02-18T14:02:24.088Z,120
2017-02-18T14:03:33.849Z,100
2017-02-18T14:04:42.783Z,95
2017-02-18T14:05:52.116Z,100
2017-02-18T14:07:01.060Z,110
2017-02-18T14:08:10.855Z,130
2017-02-18T14:09:19.782Z,150
2017-02-18T14:10:29.101Z,180
2017-02-18T14:11:38.429Z,185
2017-02-18T14:12:47.751Z,160
2017-02-18T14:13:57.907Z,145
2017-02-18T14:15:07.228Z,130
2017-02-18T14:16:16.574Z,115
2017-02-18T14:17:25.501Z,115
2017-02-18T14:18:34.419Z,130
2017-02-18T14:19:43.418Z,130
2017-02-18T14:20:52.362Z,135
2017-02-18T14:22:01.686Z,145
2017-02-18T14:23:11.076Z,155
2017-02-18T14:24:19.993Z,150
2017-02-18T14:25:30.161Z,145
2017-02-18T14:26:39.844Z,145
2017-02-18T14:27:49.058Z,155
2017-02-18T14:28:59.928Z,150
2017-02-18T14:30:10.270Z,130
2017-02-18T14:31:21.000Z,125
2017-02-18T14:32:30.916Z,115
2017-02-18T14:33:40.886Z,105
2017-02-18T14:34:52.090Z,100
2017-02-18T14:36:02.945Z,95
2017-02-18T14:37:13.041Z,95
2017-02-18T14:38:22.127Z,95
2017-02-18T14:39:31.749Z,85
2017-02-18T14:40:41.916Z,85
2017-02-18T14:41:51.442Z,85
2017-02-18T14:43:00.410Z,80
2017-02-18T14:44:10.709Z,80
2017-02-18T14:45:22.701Z,80
2017-02-18T14:46:34.154Z,85
2017-02-18T14:47:45.990Z,80
2017-02-18T14:48:56.628Z,85
2017-02-18T14:50:08.233Z,90
2017-02-18T14:51:18.592Z,90
2017-02-18T14:52:27.949Z,85
2017-02-18T14:53:39.995Z,80
2017-02-18T14:54:49.943Z,80
2017-02-18T14:56:01.030Z,75
2017-02-18T14:57:10.983Z,70
2017-02-18T14:58:20.604Z,75
2017-02-18T14:59:32.792Z,75
2017-02-18T15:00:42.439Z,75
2017-02-18T15:01:51.643Z,80
2017-02-18T15:03:03.731Z,80
2017-02-18T15:04:12.971Z,85
2017-02-18T15:05:23.071Z,90
2017-02-18T15:06:33.045Z,95
2017-02-18T15:07:42.732Z,95
2017-02-18T15:08:51.869Z,90
2017-02-18T15:10:02.370Z,90
2017-02-18T15:11:11.754Z,95
2017-02-18T15:12:22.985Z,90
2017-02-18T15:13:33.035Z,85
2017-02-18T15:14:43.182Z,85
2017-02-18T15:15:52.286Z,85
2017-02-18T15:17:02.791Z,85
2017-02-18T15:18:12.954Z,90
2017-02-18T15:19:23.512Z,110
2017-02-18T15:20:32.903Z,110
2017-02-18T15:21:42.235Z,105
2017-02-18T15:22:51.595Z,115
2017-02-18T15:24:01.669Z,125
2017-02-18T15:25:11.000Z,145
2017-02-18T15:26:20.937Z,190
2017-02-18T15:27:31.998Z,165
2017-02-18T15:28:41.171Z,110
2017-02-18T15:29:51.656Z,100
2017-02-18T15:31:02.202Z,90
2017-02-18T15:32:11.602Z,90
2017-02-18T15:33:22.447Z,80
2017-02-18T15:34:31.844Z,75
2017-02-18T15:35:42.621Z,70
2017-02-18T15:36:53.584Z,75
2017-02-18T15:38:04.604Z,70
2017-02-18T15:39:14.175Z,75
2017-02-18T15:40:23.256Z,75
2017-02-18T15:41:32.347Z,75
2017-02-18T15:42:43.045Z,75
2017-02-18T15:43:53.257Z,70
2017-02-18T15:45:03.425Z,65
2017-02-18T15:46:14.789Z,65
2017-02-18T15:47:24.376Z,60
2017-02-18T15:48:34.266Z,45
2017-02-18T15:49:44.413Z,45
2017-02-18T15:50:55.483Z,45
2017-02-18T15:52:05.648Z,40
2017-02-18T15:53:15.077Z,40
2017-02-18T15:54:25.283Z,40
2017-02-18T15:55:35.823Z,40
2017-02-18T15:56:45.781Z,40
2017-02-18T15:57:57.062Z,40
2017-02-18T15:59:07.149Z,40
2017-02-18T16:00:16.949Z,45
2017-02-18T16:01:26.935Z,40
2017-02-18T16:02:37.464Z,40
2017-02-18T16:03:48.159Z,40
2017-02-18T16:04:58.675Z,45
2017-02-18T16:06:10.112Z,45
2017-02-18T16:07:20.737Z,35
2017-02-18T16:08:30.599Z,35
2017-02-18T16:09:39.918Z,30
2017-02-18T16:10:49.439Z,30
2017-02-18T16:11:58.606Z,25
2017-02-18T16:13:07.934Z,20
2017-02-18T16:14:16.878Z,20
2017-02-18T16:15:26.196Z,20
2017-02-18T16:16:35.342Z,20
2017-02-18T16:17:44.264Z,15
2017-02-18T16:18:54.463Z,15
2017-02-18T16:20:04.212Z,15
2017-02-18T16:21:13.954Z,15
2017-02-18T16:22:23.889Z,15
2017-02-18T16:23:33.645Z,15
2017-02-18T16:24:43.385Z,10
2017-02-18T16:25:52.331Z,10
2017-02-18T16:27:01.655Z,10
2017-02-18T16:28:11.141Z,10
2017-02-18T16:29:20.457Z,10
2017-02-18T16:30:29.787Z,10
2017-02-18T16:31:39.106Z,10
2017-02-18T16:32:48.478Z,10
2017-02-18T16:33:58.370Z,10
2017-02-18T16:35:08.103Z,10
2017-02-18T16:36:17.017Z,5
2017-02-18T16:37:25.941Z,5
2017-02-18T16:38:35.265Z,5